createdAt,value
2023-10-18T00:00:22.932Z,6.18
2023-10-18T00:00:55.608Z,6.18
2023-10-18T00:01:28.068Z,6.18
2023-10-18T00:02:00.483Z,6.18
2023-10-18T00:02:32.937Z,6.18
2023-10-18T00:03:05.601Z,6.18
2023-10-18T00:03:38.110Z,6.18
2023-10-18T00:04:10.440Z,6.18
2023-10-18T00:04:42.857Z,6.16
2023-10-18T00:05:15.282Z,6.16
2023-10-18T00:05:47.720Z,6.13
2023-10-18T00:06:20.158Z,6.18
2023-10-18T00:06:52.650Z,6.16
2023-10-18T00:07:25.086Z,6.13
2023-10-18T00:07:57.545Z,6.14
2023-10-18T00:08:30.038Z,6.13
2023-10-18T00:09:02.521Z,6.13
2023-10-18T00:09:34.986Z,6.11
2023-10-18T00:10:07.474Z,6.11
2023-10-18T00:10:39.895Z,6.10
2023-10-18T00:11:12.417Z,6.10
2023-10-18T00:11:44.877Z,6.13
2023-10-18T00:12:17.348Z,6.10
2023-10-18T00:12:49.980Z,6.11
2023-10-18T00:13:22.630Z,6.11
2023-10-18T00:13:55.171Z,6.07
2023-10-18T00:14:27.631Z,6.10
2023-10-18T00:15:00.081Z,6.09
2023-10-18T00:15:32.580Z,6.10
2023-10-18T00:16:05.002Z,6.07
2023-10-18T00:16:37.438Z,6.09
2023-10-18T00:17:09.889Z,6.09
2023-10-18T00:17:42.508Z,6.07
2023-10-18T00:18:14.947Z,6.07
2023-10-18T00:18:47.989Z,6.07
2023-10-18T00:19:20.386Z,6.09
2023-10-18T00:19:52.792Z,6.07
2023-10-18T00:20:25.377Z,6.07
2023-10-18T00:20:57.760Z,6.07
2023-10-18T00:21:30.198Z,6.07
2023-10-18T00:22:02.694Z,6.07
2023-10-18T00:22:35.146Z,6.04
2023-10-18T00:23:07.593Z,6.04
2023-10-18T00:23:40.063Z,6.06
2023-10-18T00:24:12.511Z,6.04
2023-10-18T00:24:44.998Z,6.04
2023-10-18T00:25:17.665Z,6.04
2023-10-18T00:25:49.972Z,6.01
2023-10-18T00:26:22.473Z,6.03
2023-10-18T00:26:54.938Z,6.03
2023-10-18T00:27:27.428Z,6.03
2023-10-18T00:27:59.894Z,6.03
2023-10-18T00:28:32.299Z,6.03
2023-10-18T00:29:04.756Z,6.03
2023-10-18T00:29:37.202Z,6.04
2023-10-18T00:30:09.658Z,6.03
2023-10-18T00:30:42.223Z,6.01
2023-10-18T00:31:14.784Z,6.00
2023-10-18T00:31:47.221Z,6.01
2023-10-18T00:32:19.589Z,5.98
2023-10-18T00:32:52.047Z,6.00
2023-10-18T00:33:24.470Z,6.00
2023-10-18T00:33:57.061Z,6.00
2023-10-18T00:34:29.444Z,5.98
2023-10-18T00:35:01.962Z,6.00
2023-10-18T00:35:34.417Z,5.98
2023-10-18T00:36:06.873Z,5.98
2023-10-18T00:36:39.363Z,6.00
2023-10-18T00:37:11.802Z,5.98
2023-10-18T00:37:44.224Z,5.98
2023-10-18T00:38:16.668Z,6.00
2023-10-18T00:38:49.146Z,5.98
2023-10-18T00:39:21.605Z,5.98
2023-10-18T00:39:54.082Z,5.96
2023-10-18T00:40:26.506Z,5.98
2023-10-18T00:40:59.032Z,5.96
2023-10-18T00:41:31.542Z,5.95
2023-10-18T00:42:03.949Z,5.95
2023-10-18T00:42:36.455Z,5.95
2023-10-18T00:43:09.050Z,5.96
2023-10-18T00:43:41.455Z,5.98
2023-10-18T00:44:13.890Z,5.95
2023-10-18T00:44:46.306Z,5.96
2023-10-18T00:45:18.711Z,5.96
2023-10-18T00:45:51.267Z,5.96
2023-10-18T00:46:23.763Z,5.95
2023-10-18T00:46:56.168Z,5.95
2023-10-18T00:47:28.722Z,5.95
2023-10-18T00:48:01.142Z,5.98
2023-10-18T00:48:33.557Z,5.93
2023-10-18T00:49:06.040Z,5.95
2023-10-18T00:49:38.481Z,5.93
2023-10-18T00:50:10.971Z,5.93
2023-10-18T00:50:43.456Z,5.91
2023-10-18T00:51:15.879Z,5.91
2023-10-18T00:51:48.381Z,5.92
2023-10-18T00:52:20.779Z,5.91
2023-10-18T00:52:53.282Z,5.91
2023-10-18T00:53:25.786Z,5.92
2023-10-18T00:53:58.278Z,5.92
2023-10-18T00:54:30.788Z,5.93
2023-10-18T00:55:03.251Z,5.89
2023-10-18T00:55:35.691Z,5.92
2023-10-18T00:56:08.148Z,5.91
2023-10-18T00:56:40.613Z,5.91
2023-10-18T00:57:14.025Z,5.92
2023-10-18T00:57:49.153Z,5.91
2023-10-18T00:58:18.019Z,5.92
2023-10-18T00:58:50.444Z,5.91
2023-10-18T00:59:22.892Z,5.91
2023-10-18T00:59:55.998Z,5.89
2023-10-18T01:00:28.457Z,5.89
2023-10-18T01:01:01.061Z,5.89
2023-10-18T01:01:33.503Z,5.86
2023-10-18T01:02:05.927Z,5.89
2023-10-18T01:02:38.416Z,5.89
2023-10-18T01:03:10.958Z,5.88
2023-10-18T01:03:44.467Z,5.88
2023-10-18T01:04:15.796Z,5.88
2023-10-18T01:04:48.235Z,5.86
2023-10-18T01:05:20.676Z,5.86
2023-10-18T01:05:53.154Z,5.88
2023-10-18T01:06:25.834Z,5.85
2023-10-18T01:06:58.320Z,5.86
2023-10-18T01:07:30.674Z,5.85
2023-10-18T01:08:03.110Z,5.85
2023-10-18T01:08:35.505Z,5.85
2023-10-18T01:09:07.992Z,5.85
2023-10-18T01:09:40.471Z,5.85
2023-10-18T01:10:12.974Z,5.83
2023-10-18T01:10:45.400Z,5.85
2023-10-18T01:11:17.872Z,5.83
2023-10-18T01:11:50.339Z,5.85
2023-10-18T01:12:22.820Z,5.83
2023-10-18T01:12:55.313Z,5.85
2023-10-18T01:13:27.761Z,5.85
2023-10-18T01:14:00.308Z,5.83
2023-10-18T01:14:32.782Z,5.81
2023-10-18T01:15:05.290Z,5.81
2023-10-18T01:15:37.814Z,5.82
2023-10-18T01:16:10.444Z,5.82
2023-10-18T01:16:42.821Z,5.82
2023-10-18T01:17:15.277Z,5.83
2023-10-18T01:17:47.795Z,5.83
2023-10-18T01:18:20.224Z,5.81
2023-10-18T01:18:52.705Z,5.81
2023-10-18T01:19:25.198Z,5.83
2023-10-18T01:19:57.644Z,5.83
2023-10-18T01:20:30.131Z,5.83
2023-10-18T01:21:02.582Z,5.83
2023-10-18T01:21:35.062Z,5.82
2023-10-18T01:22:07.572Z,5.82
2023-10-18T01:22:39.972Z,5.81
2023-10-18T01:23:12.442Z,5.83
2023-10-18T01:23:44.938Z,5.82
2023-10-18T01:24:17.477Z,5.78
2023-10-18T01:24:50.091Z,5.81
2023-10-18T01:25:22.535Z,5.77
2023-10-18T01:25:55.021Z,5.78
2023-10-18T01:26:27.491Z,5.75
2023-10-18T01:26:59.984Z,5.75
2023-10-18T01:27:32.459Z,5.77
2023-10-18T01:28:05.037Z,5.75
2023-10-18T01:28:37.388Z,5.75
2023-10-18T01:29:10.041Z,5.74
2023-10-18T01:29:42.259Z,5.74
2023-10-18T01:30:14.733Z,5.75
2023-10-18T01:30:47.318Z,5.75
2023-10-18T01:31:19.791Z,5.74
2023-10-18T01:31:52.222Z,5.71
2023-10-18T01:32:24.737Z,5.73
2023-10-18T01:32:57.144Z,5.71
2023-10-18T01:33:29.568Z,5.71
2023-10-18T01:34:02.056Z,5.71
2023-10-18T01:34:34.473Z,5.68
2023-10-18T01:35:06.971Z,5.70
2023-10-18T01:35:39.456Z,5.68
2023-10-18T01:36:11.942Z,5.68
2023-10-18T01:36:44.425Z,5.68
2023-10-18T01:37:16.858Z,5.67
2023-10-18T01:37:49.280Z,5.70
2023-10-18T01:38:21.744Z,5.67
2023-10-18T01:38:54.487Z,5.67
2023-10-18T01:39:26.721Z,5.67
2023-10-18T01:39:59.209Z,5.68
2023-10-18T01:40:31.654Z,5.68
2023-10-18T01:41:04.334Z,5.68
2023-10-18T01:41:36.793Z,5.68
2023-10-18T01:42:09.270Z,5.68
2023-10-18T01:42:41.805Z,5.67
2023-10-18T01:43:14.279Z,5.68
2023-10-18T01:43:46.692Z,5.67
2023-10-18T01:44:19.124Z,5.68
2023-10-18T01:44:51.607Z,5.68
2023-10-18T01:45:24.051Z,5.68
2023-10-18T01:45:56.601Z,5.67
2023-10-18T01:46:29.056Z,5.67
2023-10-18T01:47:01.494Z,5.67
2023-10-18T01:47:47.427Z,5.67
2023-10-18T01:48:06.404Z,5.68
2023-10-18T01:48:38.948Z,5.68
2023-10-18T01:49:11.330Z,5.67
2023-10-18T01:49:43.782Z,5.68
2023-10-18T01:50:16.268Z,5.68
2023-10-18T01:50:48.745Z,5.70
2023-10-18T01:51:21.191Z,5.68
2023-10-18T01:51:53.705Z,5.70
2023-10-18T01:52:26.177Z,5.68
2023-10-18T01:52:58.639Z,5.67
2023-10-18T01:53:31.137Z,5.67
2023-10-18T01:54:03.563Z,5.66
2023-10-18T01:54:36.032Z,5.66
2023-10-18T01:55:08.618Z,5.68
2023-10-18T01:55:40.998Z,5.63
2023-10-18T01:56:13.585Z,5.67
2023-10-18T01:56:46.046Z,5.66
2023-10-18T01:57:18.523Z,5.67
2023-10-18T01:57:51.008Z,5.66
2023-10-18T01:58:23.494Z,5.67
2023-10-18T01:58:55.978Z,5.67
2023-10-18T01:59:28.705Z,5.67
2023-10-18T02:00:00.919Z,5.66
2023-10-18T02:00:33.460Z,5.67
2023-10-18T02:01:06.012Z,5.68
2023-10-18T02:01:38.488Z,5.67
2023-10-18T02:02:10.910Z,5.68
2023-10-18T02:02:43.438Z,5.68
2023-10-18T02:03:15.964Z,5.67
2023-10-18T02:03:48.496Z,5.68
2023-10-18T02:04:20.905Z,5.67
2023-10-18T02:04:54.598Z,5.68
2023-10-18T02:05:25.808Z,5.68
2023-10-18T02:05:58.255Z,5.67
2023-10-18T02:06:30.728Z,5.67
2023-10-18T02:07:03.268Z,5.67
2023-10-18T02:07:35.689Z,5.66
2023-10-18T02:08:08.171Z,5.67
2023-10-18T02:08:40.676Z,5.64
2023-10-18T02:09:13.156Z,5.66
2023-10-18T02:09:45.643Z,5.64
2023-10-18T02:10:18.165Z,5.64
2023-10-18T02:10:50.641Z,5.64
2023-10-18T02:11:23.073Z,5.60
2023-10-18T02:11:55.530Z,5.64
2023-10-18T02:12:28.020Z,5.66
2023-10-18T02:13:00.534Z,5.63
2023-10-18T02:13:32.986Z,5.64
2023-10-18T02:14:05.443Z,5.63
2023-10-18T02:14:38.022Z,5.64
2023-10-18T02:15:10.467Z,5.60
2023-10-18T02:15:42.994Z,5.63
2023-10-18T02:16:15.442Z,5.60
2023-10-18T02:16:47.896Z,5.63
2023-10-18T02:17:20.766Z,5.60
2023-10-18T02:17:52.952Z,5.64
2023-10-18T02:18:25.463Z,5.63
2023-10-18T02:18:57.929Z,5.63
2023-10-18T02:19:30.522Z,5.63
2023-10-18T02:20:02.852Z,5.60
2023-10-18T02:20:35.310Z,5.60
2023-10-18T02:21:07.781Z,5.60
2023-10-18T02:21:40.285Z,5.64
2023-10-18T02:22:12.708Z,5.64
2023-10-18T02:22:45.137Z,5.64
2023-10-18T02:23:17.613Z,5.63
2023-10-18T02:23:50.068Z,5.57
2023-10-18T02:24:22.581Z,5.60
2023-10-18T02:24:55.176Z,5.59
2023-10-18T02:25:27.565Z,5.59
2023-10-18T02:26:00.025Z,5.59
2023-10-18T02:26:33.087Z,5.59
2023-10-18T02:27:04.970Z,5.57
2023-10-18T02:27:37.382Z,5.60
2023-10-18T02:28:09.905Z,5.59
2023-10-18T02:28:42.314Z,5.60
2023-10-18T02:29:14.827Z,5.60
2023-10-18T02:29:47.314Z,5.59
2023-10-18T02:30:19.809Z,5.59
2023-10-18T02:30:52.296Z,5.60
2023-10-18T02:31:24.768Z,5.60
2023-10-18T02:31:57.288Z,5.60
2023-10-18T02:32:29.707Z,5.59
2023-10-18T02:33:02.096Z,5.60
2023-10-18T02:33:34.537Z,5.60
2023-10-18T02:34:15.121Z,5.59
2023-10-18T02:34:39.500Z,5.59
2023-10-18T02:35:11.908Z,5.60
2023-10-18T02:35:44.379Z,5.57
2023-10-18T02:36:16.919Z,5.57
2023-10-18T02:36:49.446Z,5.57
2023-10-18T02:37:21.896Z,5.56
2023-10-18T02:37:54.363Z,5.56
2023-10-18T02:38:26.929Z,5.53
2023-10-18T02:38:59.414Z,5.52
2023-10-18T02:39:31.932Z,5.53
2023-10-18T02:40:05.668Z,5.55
2023-10-18T02:40:36.862Z,5.53
2023-10-18T02:41:09.281Z,5.53
2023-10-18T02:41:41.731Z,5.55
2023-10-18T02:42:14.257Z,5.53
2023-10-18T02:42:46.785Z,5.55
2023-10-18T02:43:19.309Z,5.55
2023-10-18T02:43:51.805Z,5.55
2023-10-18T02:44:24.266Z,5.55
2023-10-18T02:44:56.868Z,5.57
2023-10-18T02:45:29.331Z,5.56
2023-10-18T02:46:01.862Z,5.57
2023-10-18T02:46:34.374Z,5.56
2023-10-18T02:47:06.806Z,5.56
2023-10-18T02:47:39.332Z,5.55
2023-10-18T02:48:11.727Z,5.56
2023-10-18T02:48:44.240Z,5.57
2023-10-18T02:49:16.674Z,5.55
2023-10-18T02:49:49.124Z,5.55
2023-10-18T02:50:21.584Z,5.55
2023-10-18T02:50:54.753Z,5.55
2023-10-18T02:51:27.239Z,5.57
2023-10-18T02:51:59.791Z,5.56
2023-10-18T02:52:32.227Z,5.56
2023-10-18T02:53:04.678Z,5.56
2023-10-18T02:53:37.122Z,5.56
2023-10-18T02:54:09.554Z,5.56
2023-10-18T02:54:42.062Z,5.57
2023-10-18T02:55:14.550Z,5.55
2023-10-18T02:55:46.951Z,5.56
2023-10-18T02:56:19.439Z,5.55
2023-10-18T02:56:51.910Z,5.57
2023-10-18T02:57:24.354Z,5.57
2023-10-18T02:57:56.879Z,5.57
2023-10-18T02:58:29.450Z,5.57
2023-10-18T02:59:01.900Z,5.57
2023-10-18T02:59:34.274Z,5.56
2023-10-18T03:00:06.763Z,5.56
2023-10-18T03:00:39.232Z,5.56
2023-10-18T03:01:11.882Z,5.55
2023-10-18T03:01:44.321Z,5.55
2023-10-18T03:02:16.754Z,5.55
2023-10-18T03:02:49.318Z,5.55
2023-10-18T03:03:21.786Z,5.55
2023-10-18T03:03:54.244Z,5.55
2023-10-18T03:04:26.886Z,5.55
2023-10-18T03:04:59.295Z,5.55
2023-10-18T03:05:31.773Z,5.55
2023-10-18T03:06:04.251Z,5.56
2023-10-18T03:06:36.722Z,5.56
2023-10-18T03:07:09.202Z,5.56
2023-10-18T03:07:41.624Z,5.57
2023-10-18T03:08:14.073Z,5.57
2023-10-18T03:08:46.512Z,5.59
2023-10-18T03:09:18.962Z,5.59
2023-10-18T03:09:51.433Z,5.59
2023-10-18T03:10:23.870Z,5.56
2023-10-18T03:10:56.339Z,5.59
2023-10-18T03:11:28.869Z,5.56
2023-10-18T03:12:01.313Z,5.59
2023-10-18T03:12:33.755Z,5.57
2023-10-18T03:13:06.249Z,5.56
2023-10-18T03:13:38.683Z,5.56
2023-10-18T03:14:11.143Z,5.57
2023-10-18T03:14:43.612Z,5.57
2023-10-18T03:15:16.113Z,5.57
2023-10-18T03:15:59.106Z,5.57
2023-10-18T03:16:21.032Z,5.56
2023-10-18T03:16:53.499Z,5.59
2023-10-18T03:17:26.469Z,5.60
2023-10-18T03:17:58.479Z,5.59
2023-10-18T03:18:30.873Z,5.59
2023-10-18T03:19:03.428Z,5.57
2023-10-18T03:19:35.821Z,5.57
2023-10-18T03:20:08.314Z,5.56
2023-10-18T03:20:40.786Z,5.55
2023-10-18T03:21:13.229Z,5.55
2023-10-18T03:21:45.797Z,5.56
2023-10-18T03:22:18.259Z,5.55
2023-10-18T03:22:50.660Z,5.55
2023-10-18T03:23:23.160Z,5.53
2023-10-18T03:23:55.671Z,5.55
2023-10-18T03:24:28.749Z,5.52
2023-10-18T03:25:01.641Z,5.55
2023-10-18T03:25:33.681Z,5.53
2023-10-18T03:26:06.153Z,5.52
2023-10-18T03:26:38.610Z,5.52
2023-10-18T03:27:11.071Z,5.55
2023-10-18T03:27:43.594Z,5.52
2023-10-18T03:28:16.033Z,5.53
2023-10-18T03:28:48.505Z,5.53
2023-10-18T03:29:21.018Z,5.52
2023-10-18T03:29:54.881Z,5.52
2023-10-18T03:30:25.967Z,5.49
2023-10-18T03:30:58.487Z,5.49
2023-10-18T03:31:31.006Z,5.52
2023-10-18T03:32:03.415Z,5.50
2023-10-18T03:32:35.835Z,5.52
2023-10-18T03:33:08.324Z,5.52
2023-10-18T03:33:40.872Z,5.50
2023-10-18T03:34:13.369Z,5.52
2023-10-18T03:34:45.758Z,5.50
2023-10-18T03:35:18.256Z,5.50
2023-10-18T03:35:50.728Z,5.50
2023-10-18T03:36:23.189Z,5.49
2023-10-18T03:36:55.677Z,5.52
2023-10-18T03:37:28.125Z,5.50
2023-10-18T03:38:00.624Z,5.49
2023-10-18T03:38:33.121Z,5.49
2023-10-18T03:39:05.578Z,5.49
2023-10-18T03:39:38.125Z,5.46
2023-10-18T03:40:10.624Z,5.49
2023-10-18T03:40:43.028Z,5.48
2023-10-18T03:41:15.502Z,5.48
2023-10-18T03:41:48.076Z,5.46
2023-10-18T03:42:20.411Z,5.46
2023-10-18T03:42:52.978Z,5.46
2023-10-18T03:43:25.388Z,5.46
2023-10-18T03:43:57.890Z,5.46
2023-10-18T03:44:30.357Z,5.48
2023-10-18T03:45:02.886Z,5.48
2023-10-18T03:45:35.428Z,5.49
2023-10-18T03:46:07.875Z,5.48
2023-10-18T03:46:40.411Z,5.48
2023-10-18T03:47:12.814Z,5.48
2023-10-18T03:47:45.335Z,5.49
2023-10-18T03:48:17.769Z,5.48
2023-10-18T03:48:50.379Z,5.48
2023-10-18T03:49:22.857Z,5.49
2023-10-18T03:49:55.289Z,5.52
2023-10-18T03:50:27.822Z,5.48
2023-10-18T03:51:00.282Z,5.49
2023-10-18T03:51:32.759Z,5.50
2023-10-18T03:52:05.239Z,5.49
2023-10-18T03:52:37.707Z,5.46
2023-10-18T03:53:10.171Z,5.46
2023-10-18T03:53:42.609Z,5.46
2023-10-18T03:54:15.087Z,5.46
2023-10-18T03:54:47.730Z,5.45
2023-10-18T03:55:20.041Z,5.46
2023-10-18T03:55:52.534Z,5.45
2023-10-18T03:56:24.935Z,5.45
2023-10-18T03:56:57.382Z,5.43
2023-10-18T03:57:29.841Z,5.45
2023-10-18T03:58:02.325Z,5.43
2023-10-18T03:58:34.742Z,5.43
2023-10-18T03:59:07.212Z,5.41
2023-10-18T03:59:39.664Z,5.45
2023-10-18T04:00:12.145Z,5.41
2023-10-18T04:00:44.569Z,5.43
2023-10-18T04:01:17.089Z,5.43
2023-10-18T04:01:49.484Z,5.43
2023-10-18T04:02:21.923Z,5.43
2023-10-18T04:02:54.421Z,5.43
2023-10-18T04:03:26.979Z,5.43
2023-10-18T04:03:59.561Z,5.46
2023-10-18T04:04:31.999Z,5.45
2023-10-18T04:05:04.404Z,5.48
2023-10-18T04:05:36.874Z,5.45
2023-10-18T04:06:09.357Z,5.48
2023-10-18T04:06:41.854Z,5.46
2023-10-18T04:07:14.388Z,5.46
2023-10-18T04:07:46.785Z,5.43
2023-10-18T04:08:19.225Z,5.45
2023-10-18T04:08:51.680Z,5.45
2023-10-18T04:09:24.129Z,5.45
2023-10-18T04:09:56.624Z,5.46
2023-10-18T04:10:29.087Z,5.45
2023-10-18T04:11:01.594Z,5.45
2023-10-18T04:11:34.042Z,5.46
2023-10-18T04:12:06.541Z,5.46
2023-10-18T04:12:39.018Z,5.45
2023-10-18T04:13:11.526Z,5.45
2023-10-18T04:13:43.968Z,5.46
2023-10-18T04:14:16.437Z,5.43
2023-10-18T04:14:48.896Z,5.45
2023-10-18T04:15:21.364Z,5.46
2023-10-18T04:15:53.839Z,5.46
2023-10-18T04:16:26.352Z,5.43
2023-10-18T04:16:58.797Z,5.45
2023-10-18T04:17:31.311Z,5.43
2023-10-18T04:18:03.893Z,5.43
2023-10-18T04:18:36.260Z,5.43
2023-10-18T04:19:08.752Z,5.45
2023-10-18T04:19:41.235Z,5.41
2023-10-18T04:20:13.647Z,5.41
2023-10-18T04:20:46.112Z,5.41
2023-10-18T04:21:18.564Z,5.41
2023-10-18T04:21:51.030Z,5.43
2023-10-18T04:22:23.466Z,5.41
2023-10-18T04:22:55.931Z,5.40
2023-10-18T04:23:28.428Z,5.40
2023-10-18T04:24:00.845Z,5.40
2023-10-18T04:24:33.341Z,5.41
2023-10-18T04:25:05.795Z,5.38
2023-10-18T04:25:38.225Z,5.40
2023-10-18T04:26:10.652Z,5.38
2023-10-18T04:26:43.136Z,5.40
2023-10-18T04:27:15.597Z,5.40
2023-10-18T04:27:48.092Z,5.38
2023-10-18T04:28:20.570Z,5.38
2023-10-18T04:28:52.962Z,5.40
2023-10-18T04:29:25.437Z,5.40
2023-10-18T04:29:57.913Z,5.43
2023-10-18T04:30:30.394Z,5.46
2023-10-18T04:31:02.946Z,5.46
2023-10-18T04:31:35.416Z,5.46
2023-10-18T04:32:07.874Z,5.48
2023-10-18T04:32:40.237Z,5.45
2023-10-18T04:33:12.867Z,5.45
2023-10-18T04:33:45.226Z,5.41
2023-10-18T04:34:17.742Z,5.43
2023-10-18T04:34:51.038Z,5.41
2023-10-18T04:35:23.500Z,5.45
2023-10-18T04:35:55.968Z,5.43
2023-10-18T04:36:29.791Z,5.43
2023-10-18T04:37:00.933Z,5.43
2023-10-18T04:37:33.394Z,5.41
2023-10-18T04:38:05.814Z,5.41
2023-10-18T04:38:38.284Z,5.40
2023-10-18T04:39:10.764Z,5.40
2023-10-18T04:39:43.263Z,5.38
2023-10-18T04:40:15.711Z,5.37
2023-10-18T04:40:48.202Z,5.38
2023-10-18T04:41:20.636Z,5.37
2023-10-18T04:41:53.102Z,5.38
2023-10-18T04:42:25.598Z,5.37
2023-10-18T04:42:58.105Z,5.37
2023-10-18T04:43:30.538Z,5.35
2023-10-18T04:44:02.980Z,5.34
2023-10-18T04:44:35.439Z,5.32
2023-10-18T04:45:07.901Z,5.31
2023-10-18T04:45:40.413Z,5.31
2023-10-18T04:46:12.910Z,5.31
2023-10-18T04:46:45.336Z,5.30
2023-10-18T04:47:17.779Z,5.32
2023-10-18T04:47:50.272Z,5.28
2023-10-18T04:48:22.671Z,5.31
2023-10-18T04:48:56.091Z,5.28
2023-10-18T04:49:27.682Z,5.31
2023-10-18T04:50:00.073Z,5.30
2023-10-18T04:50:32.521Z,5.30
2023-10-18T04:51:04.986Z,5.30
2023-10-18T04:51:37.438Z,5.30
2023-10-18T04:52:09.991Z,5.30
2023-10-18T04:52:42.360Z,5.28
2023-10-18T04:53:14.848Z,5.27
2023-10-18T04:53:47.323Z,5.28
2023-10-18T04:54:20.020Z,5.25
2023-10-18T04:54:52.285Z,5.28
2023-10-18T04:55:24.800Z,5.27
2023-10-18T04:55:57.226Z,5.25
2023-10-18T04:56:29.717Z,5.28
2023-10-18T04:57:02.183Z,5.25
2023-10-18T04:57:34.645Z,5.23
2023-10-18T04:58:07.164Z,5.27
2023-10-18T04:58:39.581Z,5.23
2023-10-18T04:59:12.038Z,5.23
2023-10-18T04:59:44.476Z,5.23
2023-10-18T05:00:16.942Z,5.23
2023-10-18T05:00:49.440Z,5.22
2023-10-18T05:01:21.928Z,5.22
2023-10-18T05:01:54.428Z,5.22
2023-10-18T05:02:26.825Z,5.22
2023-10-18T05:02:59.263Z,5.22
2023-10-18T05:03:32.006Z,5.22
2023-10-18T05:04:04.269Z,5.25
2023-10-18T05:04:36.684Z,5.22
2023-10-18T05:05:09.107Z,5.23
2023-10-18T05:05:41.579Z,5.23
2023-10-18T05:06:14.047Z,5.20
2023-10-18T05:06:46.512Z,5.23
2023-10-18T05:07:18.933Z,5.20
2023-10-18T05:07:51.389Z,5.23
2023-10-18T05:08:23.837Z,5.23
2023-10-18T05:08:56.306Z,5.23
2023-10-18T05:09:28.955Z,5.22
2023-10-18T05:10:01.245Z,5.22
2023-10-18T05:10:33.712Z,5.22
2023-10-18T05:11:07.159Z,5.23
2023-10-18T05:11:39.918Z,5.25
2023-10-18T05:12:12.710Z,5.23
2023-10-18T05:12:45.446Z,5.22
2023-10-18T05:13:18.275Z,5.22
2023-10-18T05:13:50.926Z,5.20
2023-10-18T05:14:23.636Z,5.22
2023-10-18T05:14:56.160Z,5.19
2023-10-18T05:15:28.784Z,5.19
2023-10-18T05:16:01.545Z,5.19
2023-10-18T05:16:34.257Z,5.20
2023-10-18T05:17:07.003Z,5.19
2023-10-18T05:17:39.425Z,5.17
2023-10-18T05:18:11.902Z,5.17
2023-10-18T05:18:44.418Z,5.19
2023-10-18T05:19:16.930Z,5.17
2023-10-18T05:19:49.357Z,5.19
2023-10-18T05:20:21.843Z,5.17
2023-10-18T05:20:54.301Z,5.20
2023-10-18T05:21:26.766Z,5.19
2023-10-18T05:21:59.237Z,5.20
2023-10-18T05:22:31.694Z,5.22
2023-10-18T05:23:04.158Z,5.20
2023-10-18T05:23:36.599Z,5.20
2023-10-18T05:24:09.044Z,5.19
2023-10-18T05:24:41.481Z,5.19
2023-10-18T05:25:14.065Z,5.22
2023-10-18T05:25:46.430Z,5.20
2023-10-18T05:26:18.950Z,5.20
2023-10-18T05:26:51.384Z,5.20
2023-10-18T05:27:23.861Z,5.20
2023-10-18T05:27:56.377Z,5.19
2023-10-18T05:28:28.864Z,5.22
2023-10-18T05:29:01.276Z,5.20
2023-10-18T05:29:33.698Z,5.23
2023-10-18T05:30:06.143Z,5.23
2023-10-18T05:30:38.618Z,5.23
2023-10-18T05:31:11.141Z,5.22
2023-10-18T05:31:43.632Z,5.22
2023-10-18T05:32:16.004Z,5.22
2023-10-18T05:32:50.970Z,5.22
2023-10-18T05:33:20.970Z,5.23
2023-10-18T05:33:53.416Z,5.22
2023-10-18T05:34:25.951Z,5.25
2023-10-18T05:35:10.505Z,5.25
2023-10-18T05:35:30.815Z,5.25
2023-10-18T05:36:03.291Z,5.25
2023-10-18T05:36:35.747Z,5.23
2023-10-18T05:37:08.241Z,5.23
2023-10-18T05:37:40.692Z,5.23
2023-10-18T05:38:13.169Z,5.25
2023-10-18T05:38:45.631Z,5.23
2023-10-18T05:39:18.076Z,5.28
2023-10-18T05:39:50.625Z,5.27
2023-10-18T05:40:23.076Z,5.28
2023-10-18T05:40:55.522Z,5.27
2023-10-18T05:41:28.068Z,5.28
2023-10-18T05:42:00.433Z,5.27
2023-10-18T05:42:32.949Z,5.28
2023-10-18T05:43:05.454Z,5.27
2023-10-18T05:43:37.904Z,5.28
2023-10-18T05:44:10.344Z,5.30
2023-10-18T05:44:42.813Z,5.28
2023-10-18T05:45:15.260Z,5.28
2023-10-18T05:45:47.748Z,5.31
2023-10-18T05:46:20.224Z,5.30
2023-10-18T05:46:52.631Z,5.30
2023-10-18T05:47:25.039Z,5.27
2023-10-18T05:47:57.558Z,5.28
2023-10-18T05:48:29.976Z,5.28
2023-10-18T05:49:02.677Z,5.31
2023-10-18T05:49:35.202Z,5.30
2023-10-18T05:50:07.398Z,5.28
2023-10-18T05:50:39.846Z,5.31
2023-10-18T05:51:12.339Z,5.31
2023-10-18T05:51:44.758Z,5.30
2023-10-18T05:52:17.480Z,5.30
2023-10-18T05:52:49.653Z,5.28
2023-10-18T05:53:22.330Z,5.30
2023-10-18T05:53:54.972Z,5.30
2023-10-18T05:54:27.419Z,5.30
2023-10-18T05:54:59.952Z,5.31
2023-10-18T05:55:32.384Z,5.31
2023-10-18T05:56:04.888Z,5.30
2023-10-18T05:56:37.378Z,5.31
2023-10-18T05:57:09.829Z,5.31
2023-10-18T05:57:42.337Z,5.28
2023-10-18T05:58:14.894Z,5.30
2023-10-18T05:58:47.296Z,5.30
2023-10-18T05:59:19.752Z,5.28
2023-10-18T05:59:52.225Z,5.31
2023-10-18T06:00:24.685Z,5.27
2023-10-18T06:00:57.287Z,5.28
2023-10-18T06:01:29.686Z,5.30
2023-10-18T06:02:02.325Z,5.28
2023-10-18T06:02:34.719Z,5.28
2023-10-18T06:03:07.137Z,5.28
2023-10-18T06:03:39.649Z,5.27
2023-10-18T06:04:12.078Z,5.28
2023-10-18T06:04:44.643Z,5.28
2023-10-18T06:05:16.938Z,5.28
2023-10-18T06:05:49.369Z,5.28
2023-10-18T06:06:21.812Z,5.30
2023-10-18T06:06:54.273Z,5.30
2023-10-18T06:07:26.738Z,5.31
2023-10-18T06:07:59.202Z,5.32
2023-10-18T06:08:31.671Z,5.32
2023-10-18T06:09:04.133Z,5.32
2023-10-18T06:09:36.588Z,5.35
2023-10-18T06:10:09.130Z,5.35
2023-10-18T06:10:41.541Z,5.35
2023-10-18T06:11:13.993Z,5.35
2023-10-18T06:11:46.479Z,5.37
2023-10-18T06:12:18.953Z,5.37
2023-10-18T06:12:51.476Z,5.38
2023-10-18T06:13:23.970Z,5.40
2023-10-18T06:13:56.394Z,5.40
2023-10-18T06:14:28.860Z,5.40
2023-10-18T06:15:01.332Z,5.41
2023-10-18T06:15:33.772Z,5.41
2023-10-18T06:16:06.327Z,5.41
2023-10-18T06:16:38.792Z,5.41
2023-10-18T06:17:11.178Z,5.43
2023-10-18T06:17:43.657Z,5.45
2023-10-18T06:18:16.080Z,5.43
2023-10-18T06:18:48.581Z,5.46
2023-10-18T06:19:21.084Z,5.46
2023-10-18T06:19:53.543Z,5.48
2023-10-18T06:20:26.003Z,5.49
2023-10-18T06:20:58.465Z,5.50
2023-10-18T06:21:30.925Z,5.52
2023-10-18T06:22:03.443Z,5.52
2023-10-18T06:22:35.890Z,5.55
2023-10-18T06:23:08.420Z,5.55
2023-10-18T06:23:40.835Z,5.55
2023-10-18T06:24:13.277Z,5.56
2023-10-18T06:24:45.777Z,5.57
2023-10-18T06:25:18.254Z,5.56
2023-10-18T06:25:50.744Z,5.60
2023-10-18T06:26:23.167Z,5.60
2023-10-18T06:26:55.649Z,5.63
2023-10-18T06:27:28.093Z,5.63
2023-10-18T06:28:00.559Z,5.63
2023-10-18T06:28:33.012Z,5.64
2023-10-18T06:29:05.473Z,5.66
2023-10-18T06:29:37.916Z,5.67
2023-10-18T06:30:10.410Z,5.66
2023-10-18T06:30:42.868Z,5.68
2023-10-18T06:31:15.430Z,5.70
2023-10-18T06:31:47.878Z,5.70
2023-10-18T06:32:20.287Z,5.73
2023-10-18T06:32:52.828Z,5.70
2023-10-18T06:33:25.234Z,5.74
2023-10-18T06:33:57.840Z,5.77
2023-10-18T06:34:30.211Z,5.77
2023-10-18T06:35:02.681Z,5.77
2023-10-18T06:35:35.173Z,5.78
2023-10-18T06:36:07.643Z,5.81
2023-10-18T06:36:41.292Z,5.85
2023-10-18T06:37:12.603Z,5.85
2023-10-18T06:37:45.034Z,5.85
2023-10-18T06:38:17.482Z,5.88
2023-10-18T06:38:50.463Z,5.88
2023-10-18T06:39:22.437Z,5.89
2023-10-18T06:39:54.928Z,5.91
2023-10-18T06:40:27.520Z,5.92
2023-10-18T06:41:06.256Z,5.92
2023-10-18T06:41:32.377Z,5.95
2023-10-18T06:42:04.855Z,5.96
2023-10-18T06:42:37.327Z,5.96
2023-10-18T06:43:09.829Z,5.98
2023-10-18T06:43:42.240Z,5.98
2023-10-18T06:44:14.697Z,6.00
2023-10-18T06:44:47.156Z,6.03
2023-10-18T06:45:19.817Z,6.01
2023-10-18T06:45:52.183Z,6.01
2023-10-18T06:46:24.618Z,6.03
2023-10-18T06:46:57.100Z,6.04
2023-10-18T06:47:29.539Z,6.06
2023-10-18T06:48:01.938Z,6.06
2023-10-18T06:48:34.391Z,6.07
2023-10-18T06:49:12.194Z,6.07
2023-10-18T06:49:39.367Z,6.10
2023-10-18T06:50:18.432Z,6.10
2023-10-18T06:50:44.238Z,6.13
2023-10-18T06:51:16.769Z,6.14
2023-10-18T06:51:49.223Z,6.14
2023-10-18T06:52:21.708Z,6.16
2023-10-18T06:52:54.537Z,6.19
2023-10-18T06:53:26.553Z,6.22
2023-10-18T06:53:59.019Z,6.22
2023-10-18T06:54:31.634Z,6.26
2023-10-18T06:55:03.974Z,6.29
2023-10-18T06:55:36.464Z,6.29
2023-10-18T06:56:08.954Z,6.30
2023-10-18T06:56:41.425Z,6.30
2023-10-18T06:57:13.865Z,6.32
2023-10-18T06:57:46.332Z,6.32
2023-10-18T06:58:18.788Z,6.33
2023-10-18T06:58:51.215Z,6.32
2023-10-18T06:59:23.684Z,6.36
2023-10-18T06:59:56.155Z,6.35
2023-10-18T07:00:28.620Z,6.40
2023-10-18T07:01:01.108Z,6.40
2023-10-18T07:01:33.585Z,6.41
2023-10-18T07:02:06.003Z,6.40
2023-10-18T07:02:38.426Z,6.41
2023-10-18T07:03:10.909Z,6.43
2023-10-18T07:03:43.347Z,6.44
2023-10-18T07:04:15.781Z,6.46
2023-10-18T07:04:48.236Z,6.47
2023-10-18T07:05:20.724Z,6.47
2023-10-18T07:05:53.184Z,6.50
2023-10-18T07:06:25.922Z,6.50
2023-10-18T07:06:58.288Z,6.51
2023-10-18T07:07:31.589Z,6.53
2023-10-18T07:08:03.113Z,6.53
2023-10-18T07:08:35.609Z,6.53
2023-10-18T07:09:08.042Z,6.54
2023-10-18T07:09:40.526Z,6.53
2023-10-18T07:10:13.067Z,6.54
2023-10-18T07:10:45.459Z,6.53
2023-10-18T07:11:22.255Z,6.54
2023-10-18T07:11:52.568Z,6.56
2023-10-18T07:12:22.836Z,6.58